Time;durP1;ratioP1;P1;durP2;ratioP2;P2;SDS_P1;SDS_P2;PMS_P1;PMS_P2;Temp;Humidity;BMP_temperature;BMP_pressure;BME280_temperature;BME280_humidity;BME280_pressure;Samples;Min_cycle;Max_cycle;Signal;HPM_P1;HPM_P2
2022/11/25 00:01:29;;;;;;;;;;;;;;;;;;5087299;23;19934;-64
2022/11/25 00:03:55;;;;;;;;;;;;;;;;;;5052340;28;19924;-64
2022/11/25 00:06:21;;;;;;;;;;;;;;;;;;5052991;28;19909;-64
2022/11/25 00:08:47;;;;;;;;;;;;;;;;;;5054620;28;19920;-63
2022/11/25 00:11:13;;;;;;;;;;;;;;;;;;5065152;28;19944;-64
2022/11/25 00:13:39;;;;;;;;;;;;;;;;;;5070272;28;19920;-63
2022/11/25 00:16:05;;;;;;;;;;;;;;;;;;5062832;28;20003;-63
2022/11/25 00:18:31;;;;;;;;;;;;;;;;;;5072854;28;20011;-64
2022/11/25 00:20:57;;;;;;;;;;;;;;;;;;5065507;28;19999;-64
2022/11/25 00:23:23;;;;;;;;;;;;;;;;;;5071253;28;19917;-63
2022/11/25 00:25:49;;;;;;;;;;;;;;;;;;5071383;28;19962;-64
2022/11/25 00:28:17;;;;;;;;;;;;;;;;;;5057104;28;19967;-64
2022/11/25 00:30:46;;;;;;;;;;;;;;;;;;5060565;28;19917;-64
2022/11/25 00:33:12;;;;;;;;;;;;;;;;;;5070688;28;19918;-64
2022/11/25 00:35:38;;;;;;;;;;;;;;;;;;5072151;28;19912;-65
2022/11/25 00:38:04;;;;;;;;;;;;;;;;;;5071076;28;19995;-64
2022/11/25 00:40:30;;;;;;;;;;;;;;;;;;5068083;28;19928;-64
2022/11/25 00:45:54;;;;;;;;;;;;;;;;;;5041902;28;20014;-64
2022/11/25 00:48:20;;;;;;;;;;;;;;;;;;5072143;28;20033;-65
2022/11/25 00:50:46;;;;;;;;;;;;;;;;;;5069111;28;19968;-64
2022/11/25 00:53:12;;;;;;;;;;;;;;;;;;5068068;28;19921;-64
2022/11/25 00:56:11;;;;;;;;;;;;;;;;;;5057355;28;19918;-64
2022/11/25 00:58:24;;;;;;;;;;;;;;;;;;5052058;28;20296;-64
2022/11/25 01:00:50;;;;;;;;;;;;;;;;;;5056991;28;19917;-63
2022/11/25 01:03:16;;;;;;;;;;;;;;;;;;5053312;28;19917;-64
2022/11/25 01:05:42;;;;;;;;;;;;;;;;;;5051151;28;20016;-64
2022/11/25 01:08:08;;;;;;;;;;;;;;;;;;5056365;28;19913;-63
2022/11/25 01:10:34;;;;;;;;;;;;;;;;;;5070135;28;20459;-63
2022/11/25 01:13:00;;;;;;;;;;;;;;;;;;5062206;28;20007;-62
2022/11/25 01:15:26;;;;;;;;;;;;;;;;;;5055462;28;20007;-63
2022/11/25 01:17:55;;;;;;;;;;;;;;;;;;5051835;28;19913;-64
2022/11/25 01:20:21;;;;;;;;;;;;;;;;;;5053316;28;19908;-64
2022/11/25 01:22:49;;;;;;;;;;;;;;;;;;5063951;28;19934;-64
2022/11/25 01:25:15;;;;;;;;;;;;;;;;;;5053135;28;20400;-63
2022/11/25 01:27:41;;;;;;;;;;;;;;;;;;5060671;28;19913;-64
2022/11/25 01:30:07;;;;;;;;;;;;;;;;;;5055101;28;19948;-64
2022/11/25 01:32:33;;;;;;;;;;;;;;;;;;5053188;28;19913;-64
2022/11/25 01:34:59;;;;;;;;;;;;;;;;;;5071935;28;19962;-63
2022/11/25 01:37:25;;;;;;;;;;;;;;;;;;5071915;28;20376;-64
2022/11/25 01:39:51;;;;;;;;;;;;;;;;;;5053707;28;19915;-64
2022/11/25 01:42:17;;;;;;;;;;;;;;;;;;5053772;28;20373;-63
2022/11/25 01:44:43;;;;;;;;;;;;;;;;;;5068717;28;19909;-64
2022/11/25 01:47:09;;;;;;;;;;;;;;;;;;5051842;28;20389;-61
2022/11/25 01:49:35;;;;;;;;;;;;;;;;;;5050262;28;19909;-63
2022/11/25 01:52:01;;;;;;;;;;;;;;;;;;5051692;28;19935;-65
2022/11/25 01:54:33;;;;;;;;;;;;;;;;;;5050144;28;20004;-64
2022/11/25 01:57:02;;;;;;;;;;;;;;;;;;5051490;28;20364;-64
2022/11/25 01:59:32;;;;;;;;;;;;;;;;;;5051549;28;20016;-61
2022/11/25 02:02:01;;;;;;;;;;;;;;;;;;5051347;28;19921;-64
2022/11/25 02:04:27;;;;;;;;;;;;;;;;;;5070985;28;19995;-63
2022/11/25 02:06:53;;;;;;;;;;;;;;;;;;5059742;28;19913;-63
2022/11/25 02:09:19;;;;;;;;;;;;;;;;;;5052665;28;19912;-65
2022/11/25 02:11:45;;;;;;;;;;;;;;;;;;5063107;28;20322;-63
2022/11/25 02:14:11;;;;;;;;;;;;;;;;;;5052604;28;19959;-63
2022/11/25 02:16:37;;;;;;;;;;;;;;;;;;5056138;28;19939;-64
2022/11/25 02:19:03;;;;;;;;;;;;;;;;;;5050324;28;19916;-64
2022/11/25 02:21:32;;;;;;;;;;;;;;;;;;5060783;28;20287;-64
2022/11/25 02:23:58;;;;;;;;;;;;;;;;;;5061430;28;19923;-61
2022/11/25 02:26:24;;;;;;;;;;;;;;;;;;5059518;28;19912;-64
2022/11/25 02:28:50;;;;;;;;;;;;;;;;;;5062789;28;19918;-64
2022/11/25 02:31:16;;;;;;;;;;;;;;;;;;5059336;28;19909;-61
2022/11/25 02:33:42;;;;;;;;;;;;;;;;;;5053666;28;19916;-64
2022/11/25 02:36:08;;;;;;;;;;;;;;;;;;5069142;28;19958;-63
2022/11/25 02:38:34;;;;;;;;;;;;;;;;;;5056818;28;19908;-64
2022/11/25 02:41:00;;;;;;;;;;;;;;;;;;5074783;28;20364;-64
2022/11/25 02:43:26;;;;;;;;;;;;;;;;;;5074787;28;19912;-64
2022/11/25 02:45:58;;;;;;;;;;;;;;;;;;5072478;28;19909;-64
2022/11/25 02:48:24;;;;;;;;;;;;;;;;;;5054010;28;19909;-64
2022/11/25 02:50:50;;;;;;;;;;;;;;;;;;5053383;28;20419;-64
2022/11/25 02:53:16;;;;;;;;;;;;;;;;;;5054716;28;19912;-64
2022/11/25 02:55:43;;;;;;;;;;;;;;;;;;5052628;28;19908;-64
2022/11/25 02:58:09;;;;;;;;;;;;;;;;;;5054573;28;20007;-64
2022/11/25 03:00:35;;;;;;;;;;;;;;;;;;5054491;28;19944;-64
2022/11/25 03:03:01;;;;;;;;;;;;;;;;;;5054263;28;19924;-64
2022/11/25 03:05:27;;;;;;;;;;;;;;;;;;5052969;28;20007;-64
2022/11/25 03:07:53;;;;;;;;;;;;;;;;;;5053141;28;20004;-63
2022/11/25 03:10:19;;;;;;;;;;;;;;;;;;5052904;28;19991;-64
2022/11/25 03:12:45;;;;;;;;;;;;;;;;;;5053833;28;19912;-63
2022/11/25 03:15:11;;;;;;;;;;;;;;;;;;5057744;28;19919;-64
2022/11/25 03:17:37;;;;;;;;;;;;;;;;;;5053720;28;20061;-64
2022/11/25 03:20:03;;;;;;;;;;;;;;;;;;5058158;28;20368;-64
2022/11/25 03:22:29;;;;;;;;;;;;;;;;;;5058097;28;19963;-64
2022/11/25 03:24:55;;;;;;;;;;;;;;;;;;5054179;28;19916;-64
2022/11/25 03:27:21;;;;;;;;;;;;;;;;;;5063244;28;20257;-64
2022/11/25 03:29:48;;;;;;;;;;;;;;;;;;5066969;28;19917;-64
2022/11/25 03:32:14;;;;;;;;;;;;;;;;;;5040863;28;20370;-63
2022/11/25 03:34:40;;;;;;;;;;;;;;;;;;5032713;28;19957;-62
2022/11/25 03:37:07;;;;;;;;;;;;;;;;;;5052853;28;20365;-63
2022/11/25 03:39:33;;;;;;;;;;;;;;;;;;5053485;28;19920;-63
2022/11/25 03:42:02;;;;;;;;;;;;;;;;;;5053922;28;20197;-63
2022/11/25 03:44:29;;;;;;;;;;;;;;;;;;5053630;28;19959;-64
2022/11/25 03:46:57;;;;;;;;;;;;;;;;;;5053665;28;20361;-64
2022/11/25 03:49:23;;;;;;;;;;;;;;;;;;5067721;28;19916;-64
2022/11/25 03:51:49;;;;;;;;;;;;;;;;;;5055316;28;19912;-64
2022/11/25 03:54:15;;;;;;;;;;;;;;;;;;5062078;28;19913;-64
2022/11/25 03:56:41;;;;;;;;;;;;;;;;;;5055886;28;19913;-64
2022/11/25 03:59:07;;;;;;;;;;;;;;;;;;5067662;28;19917;-62
2022/11/25 04:01:33;;;;;;;;;;;;;;;;;;5068051;28;19918;-64
2022/11/25 04:03:59;;;;;;;;;;;;;;;;;;5056715;28;19923;-62
2022/11/25 04:06:25;;;;;;;;;;;;;;;;;;5054261;28;19908;-62
2022/11/25 04:08:51;;;;;;;;;;;;;;;;;;5051720;28;20288;-62
2022/11/25 04:11:17;;;;;;;;;;;;;;;;;;5065372;28;19913;-64
2022/11/25 04:13:43;;;;;;;;;;;;;;;;;;5050420;28;19966;-63
2022/11/25 04:16:09;;;;;;;;;;;;;;;;;;5065758;28;20033;-63
2022/11/25 04:18:35;;;;;;;;;;;;;;;;;;5063372;28;19920;-63
2022/11/25 04:21:01;;;;;;;;;;;;;;;;;;5072883;28;19916;-64
2022/11/25 04:23:27;;;;;;;;;;;;;;;;;;5061654;28;20003;-61
2022/11/25 04:25:53;;;;;;;;;;;;;;;;;;5062573;28;20373;-63
2022/11/25 04:28:19;;;;;;;;;;;;;;;;;;5045346;28;19909;-62
2022/11/25 04:30:45;;;;;;;;;;;;;;;;;;5066607;28;20343;-64
2022/11/25 04:33:14;;;;;;;;;;;;;;;;;;5055264;28;19909;-62
2022/11/25 04:35:40;;;;;;;;;;;;;;;;;;5056940;28;19913;-63
2022/11/25 04:38:06;;;;;;;;;;;;;;;;;;5063999;28;19955;-62
2022/11/25 04:40:32;;;;;;;;;;;;;;;;;;5048005;28;19920;-64
2022/11/25 04:42:58;;;;;;;;;;;;;;;;;;5052437;28;19912;-64
2022/11/25 04:45:24;;;;;;;;;;;;;;;;;;5053680;28;20335;-64
2022/11/25 04:47:50;;;;;;;;;;;;;;;;;;5071848;28;19991;-64
2022/11/25 04:50:17;;;;;;;;;;;;;;;;;;5052826;28;19908;-64
2022/11/25 04:52:43;;;;;;;;;;;;;;;;;;5051445;28;19919;-62
2022/11/25 04:55:09;;;;;;;;;;;;;;;;;;5055894;28;19940;-62
2022/11/25 04:57:35;;;;;;;;;;;;;;;;;;5060229;28;20408;-62
2022/11/25 05:00:04;;;;;;;;;;;;;;;;;;5050869;28;19916;-63
2022/11/25 05:02:30;;;;;;;;;;;;;;;;;;5051831;28;20012;-63
2022/11/25 05:04:59;;;;;;;;;;;;;;;;;;5051120;28;19959;-63
2022/11/25 05:07:28;;;;;;;;;;;;;;;;;;5050975;28;20365;-64
2022/11/25 05:09:54;;;;;;;;;;;;;;;;;;5052518;28;19913;-65
2022/11/25 05:12:21;;;;;;;;;;;;;;;;;;5052017;28;19909;-63
2022/11/25 05:14:47;;;;;;;;;;;;;;;;;;5052341;28;20293;-63
2022/11/25 05:17:16;;;;;;;;;;;;;;;;;;5052180;28;19912;-64
2022/11/25 05:19:42;;;;;;;;;;;;;;;;;;5051878;28;20400;-64
2022/11/25 05:22:08;;;;;;;;;;;;;;;;;;5051907;28;19917;-64
2022/11/25 05:24:34;;;;;;;;;;;;;;;;;;5051839;28;19909;-64
2022/11/25 05:27:18;;;;;;;;;;;;;;;;;;5051853;28;19916;-64
2022/11/25 05:29:47;;;;;;;;;;;;;;;;;;5051258;28;19932;-64
2022/11/25 05:32:13;;;;;;;;;;;;;;;;;;5051912;28;19909;-64
2022/11/25 05:34:39;;;;;;;;;;;;;;;;;;5051968;28;19909;-64
2022/11/25 05:37:08;;;;;;;;;;;;;;;;;;5052139;28;19909;-65
2022/11/25 05:39:34;;;;;;;;;;;;;;;;;;5051893;28;19913;-64
2022/11/25 05:42:00;;;;;;;;;;;;;;;;;;5051758;28;20338;-64
2022/11/25 05:44:26;;;;;;;;;;;;;;;;;;5051854;28;19909;-64
2022/11/25 05:46:52;;;;;;;;;;;;;;;;;;5051792;28;19909;-63
2022/11/25 05:49:18;;;;;;;;;;;;;;;;;;5050456;28;19935;-64
2022/11/25 05:51:44;;;;;;;;;;;;;;;;;;5050525;28;20369;-64
2022/11/25 05:54:10;;;;;;;;;;;;;;;;;;5051697;28;19916;-64
2022/11/25 05:56:36;;;;;;;;;;;;;;;;;;5051902;28;19909;-64
2022/11/25 05:59:02;;;;;;;;;;;;;;;;;;5051587;28;20046;-64
2022/11/25 06:01:28;;;;;;;;;;;;;;;;;;5053746;28;20017;-63
2022/11/25 06:03:54;;;;;;;;;;;;;;;;;;5056020;28;19917;-63
2022/11/25 06:06:23;;;;;;;;;;;;;;;;;;5054133;28;19909;-63
2022/11/25 06:08:49;;;;;;;;;;;;;;;;;;5055494;28;20416;-63
2022/11/25 06:11:18;;;;;;;;;;;;;;;;;;5055450;28;20006;-63
2022/11/25 06:13:44;;;;;;;;;;;;;;;;;;5055649;28;19999;-63
2022/11/25 06:16:10;;;;;;;;;;;;;;;;;;5055362;28;19944;-63
2022/11/25 06:18:36;;;;;;;;;;;;;;;;;;5055228;28;20003;-63
2022/11/25 06:21:02;;;;;;;;;;;;;;;;;;5055148;28;19909;-63
2022/11/25 06:23:28;;;;;;;;;;;;;;;;;;5054074;28;20380;-63
2022/11/25 06:25:54;;;;;;;;;;;;;;;;;;5054909;28;19955;-63
2022/11/25 06:28:20;;;;;;;;;;;;;;;;;;5054895;28;19915;-63
2022/11/25 06:30:46;;;;;;;;;;;;;;;;;;5055162;28;19908;-63
2022/11/25 06:33:12;;;;;;;;;;;;;;;;;;5055285;28;20377;-63
2022/11/25 06:35:38;;;;;;;;;;;;;;;;;;5054027;28;19909;-63
2022/11/25 06:38:04;;;;;;;;;;;;;;;;;;5055086;28;19939;-63
2022/11/25 06:40:31;;;;;;;;;;;;;;;;;;5054771;28;19924;-63
2022/11/25 06:42:57;;;;;;;;;;;;;;;;;;5054898;28;19912;-63
2022/11/25 06:45:23;;;;;;;;;;;;;;;;;;5054825;28;19916;-64
2022/11/25 06:47:49;;;;;;;;;;;;;;;;;;5054759;28;19909;-63
2022/11/25 06:50:21;;;;;;;;;;;;;;;;;;5054422;28;20288;-63
2022/11/25 06:52:47;;;;;;;;;;;;;;;;;;5053439;28;19916;-63
2022/11/25 06:55:13;;;;;;;;;;;;;;;;;;5054670;28;19909;-63
2022/11/25 06:57:42;;;;;;;;;;;;;;;;;;5054697;28;19931;-64
2022/11/25 07:00:08;;;;;;;;;;;;;;;;;;5054310;28;19912;-63
2022/11/25 07:02:34;;;;;;;;;;;;;;;;;;5054323;28;19923;-63
2022/11/25 07:05:00;;;;;;;;;;;;;;;;;;5054501;28;19909;-63
2022/11/25 07:07:26;;;;;;;;;;;;;;;;;;5053236;28;19905;-64
2022/11/25 07:09:52;;;;;;;;;;;;;;;;;;5054278;28;19916;-63
2022/11/25 07:12:18;;;;;;;;;;;;;;;;;;5054063;28;19915;-64
2022/11/25 07:14:44;;;;;;;;;;;;;;;;;;5054287;28;19932;-63
2022/11/25 07:17:10;;;;;;;;;;;;;;;;;;5054028;28;20323;-64
2022/11/25 07:19:37;;;;;;;;;;;;;;;;;;5054291;28;20384;-63
2022/11/25 07:22:03;;;;;;;;;;;;;;;;;;5054173;28;19905;-64
2022/11/25 07:24:29;;;;;;;;;;;;;;;;;;5054251;28;19959;-64
2022/11/25 07:26:55;;;;;;;;;;;;;;;;;;5054116;28;19909;-64
2022/11/25 07:29:21;;;;;;;;;;;;;;;;;;5053965;28;20160;-64
2022/11/25 07:31:47;;;;;;;;;;;;;;;;;;5053936;28;20031;-63
2022/11/25 07:34:13;;;;;;;;;;;;;;;;;;5054130;28;19913;-64
2022/11/25 07:36:39;;;;;;;;;;;;;;;;;;5054002;28;19913;-63
2022/11/25 07:39:06;;;;;;;;;;;;;;;;;;5052538;28;20327;-63
2022/11/25 07:41:38;;;;;;;;;;;;;;;;;;5053750;28;19909;-63
2022/11/25 07:44:04;;;;;;;;;;;;;;;;;;5053703;28;20003;-63
2022/11/25 07:46:30;;;;;;;;;;;;;;;;;;5052420;28;20324;-64
2022/11/25 07:48:56;;;;;;;;;;;;;;;;;;5053560;28;19909;-64
2022/11/25 07:51:22;;;;;;;;;;;;;;;;;;5053608;28;20293;-63
2022/11/25 07:53:48;;;;;;;;;;;;;;;;;;5053605;28;19920;-64
2022/11/25 07:56:14;;;;;;;;;;;;;;;;;;5053398;28;20381;-63
2022/11/25 07:58:40;;;;;;;;;;;;;;;;;;5053306;28;19909;-63
2022/11/25 08:01:06;;;;;;;;;;;;;;;;;;5053249;28;20266;-64
2022/11/25 08:03:36;;;;;;;;;;;;;;;;;;5051865;28;19924;-64
2022/11/25 08:06:02;;;;;;;;;;;;;;;;;;5053361;28;19909;-64
2022/11/25 08:08:28;;;;;;;;;;;;;;;;;;5053266;28;19912;-64
2022/11/25 08:10:54;;;;;;;;;;;;;;;;;;5053139;28;19909;-64
2022/11/25 08:13:20;;;;;;;;;;;;;;;;;;5053153;28;20380;-63
2022/11/25 08:15:46;;;;;;;;;;;;;;;;;;5052317;28;19909;-63
2022/11/25 08:18:12;;;;;;;;;;;;;;;;;;5052703;28;19909;-63
2022/11/25 08:20:38;;;;;;;;;;;;;;;;;;5052957;28;20300;-63
2022/11/25 08:23:04;;;;;;;;;;;;;;;;;;5052716;28;20395;-63
2022/11/25 08:25:36;;;;;;;;;;;;;;;;;;5051394;28;20436;-63
2022/11/25 08:28:02;;;;;;;;;;;;;;;;;;5052883;28;20289;-63
2022/11/25 08:30:28;;;;;;;;;;;;;;;;;;5052738;28;20349;-63
2022/11/25 08:32:54;;;;;;;;;;;;;;;;;;5052802;28;19909;-63
2022/11/25 08:35:20;;;;;;;;;;;;;;;;;;5052851;28;20327;-63
2022/11/25 08:37:46;;;;;;;;;;;;;;;;;;5052866;28;19909;-63
2022/11/25 08:40:12;;;;;;;;;;;;;;;;;;5052469;28;19916;-63
2022/11/25 08:42:38;;;;;;;;;;;;;;;;;;5052401;28;19917;-63
2022/11/25 08:45:04;;;;;;;;;;;;;;;;;;5052630;28;19987;-63
2022/11/25 08:53:09;;;;;;;;;;;;;;;;;;5049276;28;19913;-63
2022/11/25 08:55:37;;;;;;;;;;;;;;;;;;5051644;28;19908;-63
2022/11/25 08:58:03;;;;;;;;;;;;;;;;;;5052480;28;20369;-63
2022/11/25 09:00:29;;;;;;;;;;;;;;;;;;5052215;28;19905;-63
2022/11/25 09:02:55;;;;;;;;;;;;;;;;;;5052151;28;20003;-63
2022/11/25 09:05:21;;;;;;;;;;;;;;;;;;5052160;28;19955;-63
2022/11/25 09:07:47;;;;;;;;;;;;;;;;;;5052125;28;19916;-63
2022/11/25 09:10:16;;;;;;;;;;;;;;;;;;5052064;28;19912;-63
2022/11/25 09:12:42;;;;;;;;;;;;;;;;;;5052246;28;19909;-63
2022/11/25 09:15:26;;;;;;;;;;;;;;;;;;5050892;28;19966;-63
2022/11/25 09:17:55;;;;;;;;;;;;;;;;;;5051741;28;20423;-63
2022/11/25 09:20:21;;;;;;;;;;;;;;;;;;5051929;28;19951;-63
2022/11/25 09:22:47;;;;;;;;;;;;;;;;;;5052164;28;19912;-63
2022/11/25 09:25:13;;;;;;;;;;;;;;;;;;5052099;28;19912;-63
2022/11/25 09:27:39;;;;;;;;;;;;;;;;;;5052364;28;19955;-63
2022/11/25 09:30:06;;;;;;;;;;;;;;;;;;5051854;28;19963;-63
2022/11/25 09:32:35;;;;;;;;;;;;;;;;;;5051504;28;19909;-63
2022/11/25 09:35:01;;;;;;;;;;;;;;;;;;5051774;28;19919;-63
2022/11/25 09:37:33;;;;;;;;;;;;;;;;;;5056126;28;19908;-63
2022/11/25 09:39:59;;;;;;;;;;;;;;;;;;5055917;28;19916;-63
2022/11/25 09:47:55;;;;;;;;;;;;;;;;;;5056089;28;19915;-63
2022/11/25 09:50:21;;;;;;;;;;;;;;;;;;5055590;28;19978;-63
2022/11/25 09:52:47;;;;;;;;;;;;;;;;;;5055801;28;19916;-63
2022/11/25 09:55:13;;;;;;;;;;;;;;;;;;5055738;28;19916;-63
2022/11/25 09:57:39;;;;;;;;;;;;;;;;;;5054335;28;19909;-63
2022/11/25 10:00:05;;;;;;;;;;;;;;;;;;5055685;28;19995;-63
2022/11/25 10:02:34;;;;;;;;;;;;;;;;;;5055526;28;19924;-63
2022/11/25 10:05:00;;;;;;;;;;;;;;;;;;5055653;28;19952;-63
2022/11/25 10:07:28;;;;;;;;;;;;;;;;;;5055668;28;20393;-63
2022/11/25 10:09:54;;;;;;;;;;;;;;;;;;5055315;28;19912;-63
2022/11/25 10:12:20;;;;;;;;;;;;;;;;;;5055256;28;19916;-63
2022/11/25 10:14:46;;;;;;;;;;;;;;;;;;5055501;28;19920;-63
2022/11/25 10:17:23;;;;;;;;;;;;;;;;;;;;;
2022/11/25 10:19:50;;;;;;;;;;;;;;;;;;5055158;28;19915;-63
2022/11/25 10:22:18;;;;;;;;;;;;;;;;;;5055695;28;19938;-63
2022/11/25 10:24:45;;;;;;;;;;;;;;;;;;5055234;28;19909;-63
2022/11/25 10:27:11;;;;;;;;;;;;;;;;;;5055294;28;19966;-63
2022/11/25 10:29:37;;;;;;;;;;;;;;;;;;5055027;28;20373;-63
2022/11/25 10:32:03;;;;;;;;;;;;;;;;;;5055099;28;19915;-63
2022/11/25 10:34:29;;;;;;;;;;;;;;;;;;5053878;28;19912;-63
2022/11/25 10:36:55;;;;;;;;;;;;;;;;;;5055052;28;19916;-63
2022/11/25 10:39:27;;;;;;;;;;;;;;;;;;5054818;28;19908;-63
2022/11/25 10:41:53;;;;;;;;;;;;;;;;;;5054797;28;19909;-63
2022/11/25 10:44:19;;;;;;;;;;;;;;;;;;5054826;28;19913;-63
2022/11/25 10:46:45;;;;;;;;;;;;;;;;;;5054238;28;20006;-63
2022/11/25 10:49:11;;;;;;;;;;;;;;;;;;5054773;28;20027;-63
2022/11/25 10:51:37;;;;;;;;;;;;;;;;;;5054748;28;20352;-63
2022/11/25 10:54:03;;;;;;;;;;;;;;;;;;5054760;28;19948;-63
2022/11/25 10:56:29;;;;;;;;;;;;;;;;;;5054626;28;19909;-63
2022/11/25 10:58:55;;;;;;;;;;;;;;;;;;5054341;28;20392;-63
2022/11/25 11:01:21;;;;;;;;;;;;;;;;;;5054477;28;19961;-63
2022/11/25 11:03:55;;;;;;;;;;;;;;;;;;5053619;28;20296;-63
2022/11/25 11:06:24;;;;;;;;;;;;;;;;;;5053123;28;19944;-64
2022/11/25 11:08:50;;;;;;;;;;;;;;;;;;5052886;28;19932;-63
2022/11/25 11:11:16;;;;;;;;;;;;;;;;;;5054240;28;20288;-63
2022/11/25 11:13:42;;;;;;;;;;;;;;;;;;5056156;28;19913;-63
2022/11/25 11:16:08;;;;;;;;;;;;;;;;;;5065043;28;19917;-63
2022/11/25 11:18:34;;;;;;;;;;;;;;;;;;5059208;28;20046;-63
2022/11/25 11:21:00;;;;;;;;;;;;;;;;;;5071525;28;19919;-63
2022/11/25 11:23:26;;;;;;;;;;;;;;;;;;5055818;28;19917;-63
2022/11/25 11:25:52;;;;;;;;;;;;;;;;;;5053293;28;19966;-63
2022/11/25 11:28:18;;;;;;;;;;;;;;;;;;5059487;28;19952;-64
2022/11/25 11:30:46;;;;;;;;;;;;;;;;;;5061802;28;19998;-63
2022/11/25 11:33:12;;;;;;;;;;;;;;;;;;5049886;28;20292;-63
2022/11/25 11:35:38;;;;;;;;;;;;;;;;;;5054451;28;19920;-64
2022/11/25 11:38:04;;;;;;;;;;;;;;;;;;5059973;28;19913;-63
2022/11/25 11:40:30;;;;;;;;;;;;;;;;;;5060025;28;19913;-63
2022/11/25 11:42:57;;;;;;;;;;;;;;;;;;5071702;28;19951;-63
2022/11/25 11:45:26;;;;;;;;;;;;;;;;;;5071187;28;21951;-64
2022/11/25 11:47:52;;;;;;;;;;;;;;;;;;5052459;28;19909;-64
2022/11/25 11:50:19;;;;;;;;;;;;;;;;;;5054547;28;20012;-64
2022/11/25 11:52:50;;;;;;;;;;;;;;;;;;5053296;28;19963;-63
2022/11/25 11:55:16;;;;;;;;;;;;;;;;;;5060559;28;19919;-64
2022/11/25 11:57:43;;;;;;;;;;;;;;;;;;5063863;28;19962;-63
2022/11/25 12:00:09;;;;;;;;;;;;;;;;;;5062080;28;20349;-63
2022/11/25 12:02:35;;;;;;;;;;;;;;;;;;5053925;28;19921;-63
2022/11/25 12:05:04;;;;;;;;;;;;;;;;;;5066313;28;20320;-63
2022/11/25 12:07:30;;;;;;;;;;;;;;;;;;5070521;28;19919;-62
2022/11/25 12:09:56;;;;;;;;;;;;;;;;;;5062477;28;20381;-61
2022/11/25 12:12:22;;;;;;;;;;;;;;;;;;5057941;28;19946;-62
2022/11/25 12:14:48;;;;;;;;;;;;;;;;;;5052590;28;19948;-62
2022/11/25 12:17:17;;;;;;;;;;;;;;;;;;5052643;28;19944;-63
2022/11/25 12:22:29;;;;;;;;;;;;;;;;;;5068433;28;20379;-63
2022/11/25 12:27:40;;;;;;;;;;;;;;;;;;5069085;28;19920;-64
2022/11/25 12:30:06;;;;;;;;;;;;;;;;;;5062014;28;19913;-63
2022/11/25 12:32:32;;;;;;;;;;;;;;;;;;5064457;28;19920;-63
2022/11/25 12:34:58;;;;;;;;;;;;;;;;;;5066442;28;19916;-63
2022/11/25 12:37:24;;;;;;;;;;;;;;;;;;5063773;28;19913;-63
2022/11/25 12:39:53;;;;;;;;;;;;;;;;;;5060995;28;20281;-63
2022/11/25 12:42:19;;;;;;;;;;;;;;;;;;5052872;28;20002;-63
2022/11/25 12:44:45;;;;;;;;;;;;;;;;;;5072581;28;19916;-62
2022/11/25 12:47:11;;;;;;;;;;;;;;;;;;5066890;28;19920;-62
2022/11/25 12:49:37;;;;;;;;;;;;;;;;;;5066043;28;19912;-62
2022/11/25 12:52:09;;;;;;;;;;;;;;;;;;5072485;28;19940;-63
2022/11/25 12:54:36;;;;;;;;;;;;;;;;;;5054155;28;19912;-63
2022/11/25 12:57:02;;;;;;;;;;;;;;;;;;5051067;28;19913;-62
2022/11/25 12:59:28;;;;;;;;;;;;;;;;;;5069806;28;19912;-63
2022/11/25 13:01:54;;;;;;;;;;;;;;;;;;5057281;28;20397;-61
2022/11/25 13:04:23;;;;;;;;;;;;;;;;;;5052241;28;20043;-63
2022/11/25 13:06:49;;;;;;;;;;;;;;;;;;5052255;28;20407;-61
2022/11/25 13:09:21;;;;;;;;;;;;;;;;;;5062983;28;19916;-62
2022/11/25 13:11:47;;;;;;;;;;;;;;;;;;5065085;28;20300;-63
2022/11/25 13:14:13;;;;;;;;;;;;;;;;;;5052253;28;19909;-62
2022/11/25 13:16:39;;;;;;;;;;;;;;;;;;5063492;28;20007;-62
2022/11/25 13:19:05;;;;;;;;;;;;;;;;;;5067240;28;19913;-62
2022/11/25 13:21:31;;;;;;;;;;;;;;;;;;5069412;28;19938;-60
2022/11/25 13:24:00;;;;;;;;;;;;;;;;;;5063777;28;20380;-63
2022/11/25 13:26:26;;;;;;;;;;;;;;;;;;5056482;28;20296;-62
2022/11/25 13:28:52;;;;;;;;;;;;;;;;;;5071966;28;19909;-62
2022/11/25 13:31:18;;;;;;;;;;;;;;;;;;5057863;28;19923;-63
2022/11/25 13:33:44;;;;;;;;;;;;;;;;;;5071338;28;19908;-63
2022/11/25 13:36:11;;;;;;;;;;;;;;;;;;5052002;28;20035;-64
2022/11/25 13:38:40;;;;;;;;;;;;;;;;;;5059431;28;19948;-61
2022/11/25 13:41:06;;;;;;;;;;;;;;;;;;5070183;28;19920;-59
2022/11/25 13:43:32;;;;;;;;;;;;;;;;;;5065679;28;20413;-60
2022/11/25 13:45:58;;;;;;;;;;;;;;;;;;5058788;28;19948;-59
2022/11/25 13:48:24;;;;;;;;;;;;;;;;;;5071801;28;19908;-60
2022/11/25 13:50:50;;;;;;;;;;;;;;;;;;5069825;28;20107;-60
2022/11/25 13:56:01;;;;;;;;;;;;;;;;;;5050269;28;19927;-58
2022/11/25 13:58:31;;;;;;;;;;;;;;;;;;5050848;28;19912;-58
2022/11/25 14:00:57;;;;;;;;;;;;;;;;;;5058683;28;19912;-59
2022/11/25 14:03:24;;;;;;;;;;;;;;;;;;5071821;28;19938;-58
2022/11/25 14:05:50;;;;;;;;;;;;;;;;;;5070258;28;19924;-57
2022/11/25 14:08:16;;;;;;;;;;;;;;;;;;5063775;28;19913;-59
2022/11/25 14:10:45;;;;;;;;;;;;;;;;;;5055816;28;19982;-56
2022/11/25 14:13:11;;;;;;;;;;;;;;;;;;5072171;28;19909;-59
2022/11/25 14:15:37;;;;;;;;;;;;;;;;;;5067309;28;19920;-59
2022/11/25 14:18:06;;;;;;;;;;;;;;;;;;5051642;28;20293;-57
2022/11/25 14:20:32;;;;;;;;;;;;;;;;;;5054064;28;19921;-64
2022/11/25 14:28:28;;;;;;;;;;;;;;;;;;5074610;28;19978;-66
2022/11/25 14:31:00;;;;;;;;;;;;;;;;;;5068112;28;19982;-66
2022/11/25 14:33:30;;;;;;;;;;;;;;;;;;5074953;28;19909;-66
2022/11/25 14:35:59;;;;;;;;;;;;;;;;;;5075002;28;19939;-66
2022/11/25 14:38:25;;;;;;;;;;;;;;;;;;5071069;28;19917;-66
2022/11/25 14:40:51;;;;;;;;;;;;;;;;;;5054757;28;19913;-66
2022/11/25 14:43:17;;;;;;;;;;;;;;;;;;5053686;28;19923;-66
2022/11/25 14:45:43;;;;;;;;;;;;;;;;;;5055975;28;19913;-64
2022/11/25 14:48:09;;;;;;;;;;;;;;;;;;5065376;28;20294;-64
2022/11/25 14:50:35;;;;;;;;;;;;;;;;;;5051765;28;20051;-64
2022/11/25 14:53:01;;;;;;;;;;;;;;;;;;5051345;28;19957;-64
2022/11/25 14:55:27;;;;;;;;;;;;;;;;;;5051408;28;20019;-64
2022/11/25 15:00:39;;;;;;;;;;;;;;;;;;5054091;28;19924;-64
2022/11/25 15:03:05;;;;;;;;;;;;;;;;;;5068324;28;19927;-64
2022/11/25 15:05:32;;;;;;;;;;;;;;;;;;5064903;28;19923;-64
2022/11/25 15:07:58;;;;;;;;;;;;;;;;;;5054618;28;19912;-64
2022/11/25 15:10:24;;;;;;;;;;;;;;;;;;5046855;28;19916;-64
2022/11/25 15:12:50;;;;;;;;;;;;;;;;;;5070821;28;20422;-64
2022/11/25 15:15:16;;;;;;;;;;;13.10;82.30;;;;;;5072815;28;19909;-64
2022/11/25 15:17:41;;;;;;;;;;;12.00;88.80;;;;;;5074353;28;19912;-64
2022/11/25 15:20:12;;;;;;;;;;;11.80;88.90;;;;;;5073958;28;20015;-64
2022/11/25 15:22:38;;;;;;;;;;;;;;;;;;5072925;28;19958;-65
2022/11/25 15:25:04;;;;;;;;;;;;;;;;;;5074288;28;19912;-64
2022/11/25 15:27:30;;;;;;;;;;;;;;;;;;5074447;28;19909;-64
2022/11/25 15:29:59;;;;;;;;;;;;;;;;;;5071951;28;19943;-64
2022/11/25 15:32:28;;;;;;;;;;;;;;;;;;5074294;28;19904;-63
2022/11/25 15:34:54;;;;;;;;;;;;;;;;;;5073887;28;19912;-64
2022/11/25 15:37:21;;;;;;;;;;;;;;;;;;5073020;28;20292;-64
2022/11/25 15:39:47;;;;;;;;;;;;;;;;;;5073888;28;19931;-64
2022/11/25 15:42:13;;;;;;;;;;;;;;;;;;5073758;28;19912;-64
2022/11/25 15:55:42;;;;;;;;;;;;;;;;;;5072764;28;19909;-64
2022/11/25 15:58:08;;;;;;;;;;;;;;;;;;5072113;28;19996;-64
2022/11/25 16:00:34;;;;;;;;;;;;;;;;;;5071404;28;19944;-62
2022/11/25 16:03:02;;;;;;;;;;;;;;;;;;5073379;28;19913;-64
2022/11/25 16:05:30;;;;;;;;;;;;;;;;;;5073277;28;19920;-64
2022/11/25 16:07:56;;;;;;;;;;;;;;;;;;5073391;28;19909;-64
2022/11/25 16:10:25;;;;;;;;;;;;;;;;;;5073138;28;20395;-64
2022/11/25 16:12:51;;;;;;;;;;;;;;;;;;5073146;28;19909;-64
2022/11/25 16:15:17;;;;;;;;;;;;;;;;;;5071621;28;19908;-64
2022/11/25 16:17:43;;;;;;;;;;;;;;;;;;5072952;28;19991;-65
2022/11/25 16:20:09;;;;;;;;;;;;;;;;;;5072933;28;20381;-65
2022/11/25 16:22:35;;;;;;;;;;;;;;;;;;5073073;28;19939;-64
2022/11/25 16:25:01;;;;;;;;;;;;;;;;;;5072994;28;20266;-64
2022/11/25 16:27:27;;;;;;;;;;;;;;;;;;5072992;28;20479;-64
2022/11/25 16:29:53;;;;;;;;;;;;;;;;;;5072718;28;19908;-64
2022/11/25 16:32:19;;;;;;;;;;;;;;;;;;5071283;28;19912;-64
2022/11/25 16:34:45;;;;;;;;;;;;;;;;;;5072145;28;19988;-65
2022/11/25 16:37:11;;;;;;;;;;;;;;;;;;5072661;28;19947;-65
2022/11/25 16:39:37;;;;;;;;;;;;;;;;;;5072641;28;19915;-64
2022/11/25 16:42:04;;;;;;;;;;;;;;;;;;5072601;28;19908;-64
2022/11/25 16:44:33;;;;;;;;;;;11.80;89.10;;;;;;5072051;28;19920;-64
2022/11/25 16:46:59;;;;;;;;;;;9.40;92.80;;;;;;5072855;28;20396;-65
2022/11/25 16:49:28;;;;;;;;;;;;;;;;;;5072496;28;19909;-65
2022/11/25 16:51:54;;;;;;;;;;;;;;;;;;5072560;28;19912;-65
2022/11/25 16:54:23;;;;;;;;;;;;;;;;;;5071189;28;19909;-64
2022/11/25 16:56:49;;;;;;;;;;;;;;;;;;5070664;28;19947;-64
2022/11/25 16:59:15;;;;;;;;;;;;;;;;;;5072202;28;20335;-64
2022/11/25 17:01:42;;;;;;;;;;;;;;;;;;5072377;28;19908;-64
2022/11/25 17:04:08;;;;;;;;;;;;;;;;;;5072186;28;20021;-65
2022/11/25 17:06:36;;;;;;;;;;;;;;;;;;5072396;28;19912;-64
2022/11/25 17:09:02;;;;;;;;;;;;;;;;;;5071207;28;19915;-64
2022/11/25 17:11:28;;;;;;;;;;;;;;;;;;5072317;28;19908;-64
2022/11/25 17:13:54;;;;;;;;;;;;;;;;;;5072339;28;20284;-65
2022/11/25 17:16:20;;;;;;;;;;;;;;;;;;5072091;28;19955;-65
2022/11/25 17:18:56;;;;;;;;;;;;;;;;;;5071870;28;19908;-64
2022/11/25 17:21:27;;;;;;;;;;;;;;;;;;5070715;28;20266;-64